Time;durP1;ratioP1;P1;durP2;ratioP2;P2;SDS_P1;SDS_P2;PMS_P1;PMS_P2;Temp;Humidity;BMP_temperature;BMP_pressure;BME280_temperature;BME280_humidity;BME280_pressure;Samples;Min_cycle;Max_cycle;Signal;HPM_P1;HPM_P2
2022/08/12 00:44:38;;;;;;;1.50;1.30;;;24.10;66.20;;;;;;5034694;27;45333;-66
2022/08/12 00:47:05;;;;;;;1.50;1.40;;;24.00;67.10;;;;;;5038631;28;45497;-67
2022/08/12 00:49:32;;;;;;;1.50;1.35;;;24.00;65.90;;;;;;5036302;27;45283;-68
2022/08/12 00:52:06;;;;;;;1.77;1.20;;;24.00;66.10;;;;;;5038712;27;47180;-68
2022/08/12 00:54:34;;;;;;;1.90;1.42;;;24.00;65.90;;;;;;5035812;27;45478;-67
2022/08/12 00:57:06;;;;;;;1.50;1.40;;;24.00;66.20;;;;;;5038843;28;45416;-67
2022/08/12 00:59:34;;;;;;;1.40;1.30;;;24.00;66.00;;;;;;5037637;28;45364;-67
2022/08/12 01:02:03;;;;;;;1.50;1.40;;;24.00;65.90;;;;;;5038323;28;46295;-67
2022/08/12 01:12:50;;;;;;;2.20;1.40;;;24.10;65.90;;;;;;5057285;27;45774;-66
2022/08/12 01:15:18;;;;;;;1.88;1.20;;;24.10;66.00;;;;;;5026673;27;45328;-67
2022/08/12 01:17:45;;;;;;;1.48;1.23;;;24.10;66.10;;;;;;5027304;28;45373;-67
2022/08/12 01:20:19;;;;;;;2.90;1.50;;;24.10;66.10;;;;;;5039703;28;45431;-67
2022/08/12 01:23:10;;;;;;;1.40;1.30;;;24.10;66.10;;;;;;5033878;28;45323;-66
2022/08/12 01:25:44;;;;;;;1.77;1.25;;;24.10;66.10;;;;;;5033437;27;45307;-68
2022/08/12 01:28:14;;;;;;;1.60;1.38;;;24.10;66.10;;;;;;5073522;27;45307;-67
2022/08/12 01:30:43;;;;;;;1.98;1.30;;;24.10;66.10;;;;;;5071532;27;45568;-67
2022/08/12 01:33:15;;;;;;;1.60;1.50;;;24.10;66.00;;;;;;5071448;27;46661;-67
2022/08/12 01:35:48;;;;;;;1.63;1.27;;;24.10;66.10;;;;;;5022068;28;45293;-68
2022/08/12 01:38:19;;;;;;;1.73;1.50;;;24.10;66.00;;;;;;5039189;28;45536;-66
2022/08/12 01:40:51;;;;;;;1.80;1.50;;;24.10;66.10;;;;;;5020113;28;45605;-67
2022/08/12 01:43:20;;;;;;;1.48;1.20;;;24.10;67.00;;;;;;5028698;28;46396;-68
2022/08/12 01:45:58;;;;;;;1.42;1.33;;;24.10;66.30;;;;;;5040046;28;45385;-66
2022/08/12 01:48:34;;;;;;;2.13;1.50;;;24.10;66.10;;;;;;5040620;28;45320;-67
2022/08/12 01:51:04;;;;;;;2.28;1.67;;;24.10;66.00;;;;;;5039602;28;45414;-66
2022/08/12 01:53:45;;;;;;;1.50;1.35;;;24.00;65.90;;;;;;5039606;28;46108;-66
2022/08/12 01:56:15;;;;;;;1.95;1.33;;;24.10;65.90;;;;;;5039300;27;45361;-66
2022/08/12 02:01:33;;;;;;;1.77;1.60;;;24.00;65.80;;;;;;5038447;27;45625;-68
2022/08/12 02:13:00;;;;;;;1.55;1.40;;;24.00;65.90;;;;;;5028487;28;45284;-67
2022/08/12 02:15:36;;;;;;;1.42;1.20;;;24.00;65.50;;;;;;5072930;27;47129;-67
2022/08/12 02:18:12;;;;;;;1.27;1.17;;;24.00;65.80;;;;;;5030770;28;45425;-67
2022/08/12 02:20:48;;;;;;;2.17;1.42;;;24.00;65.80;;;;;;5060898;27;45251;-67
2022/08/12 02:23:18;;;;;;;1.27;1.17;;;24.00;65.60;;;;;;5034097;27;45519;-67
2022/08/12 02:25:47;;;;;;;1.50;1.40;;;24.00;65.60;;;;;;5019453;27;46537;-68
2022/08/12 02:28:15;;;;;;;2.05;1.40;;;24.00;65.30;;;;;;5070546;27;45420;-66
2022/08/12 02:30:43;;;;;;;1.30;1.20;;;24.00;65.40;;;;;;5073647;27;45432;-67
2022/08/12 02:33:11;;;;;;;2.50;1.40;;;24.00;65.20;;;;;;5073009;27;45373;-67
2022/08/12 02:35:39;;;;;;;2.00;1.60;;;24.00;65.30;;;;;;5025277;28;46603;-67
2022/08/12 02:38:08;;;;;;;1.70;1.30;;;24.00;65.20;;;;;;5036689;28;45430;-67
2022/08/12 02:40:37;;;;;;;1.42;1.33;;;24.00;65.20;;;;;;5027825;28;45498;-67
2022/08/12 02:43:11;;;;;;;2.30;1.38;;;24.00;65.50;;;;;;5018722;27;45566;-66
2022/08/12 02:45:47;;;;;;;1.40;1.30;;;24.00;65.00;;;;;;5019607;28;47701;-67
2022/08/12 02:48:17;;;;;;;1.38;1.27;;;24.00;65.10;;;;;;5019262;27;45324;-67
2022/08/12 02:50:48;;;;;;;1.75;1.52;;;24.00;64.60;;;;;;5023848;28;45316;-67
2022/08/12 02:53:17;;;;;;;1.67;1.35;;;24.00;64.70;;;;;;5038927;28;45346;-66
2022/08/12 02:55:44;;;;;;;2.75;1.70;;;24.00;64.50;;;;;;5038918;28;48676;-67
2022/08/12 02:58:12;;;;;;;1.60;1.40;;;24.00;64.30;;;;;;5039439;28;45313;-67
2022/08/12 03:00:41;;;;;;;1.75;1.38;;;24.00;64.50;;;;;;5037117;28;45312;-67
2022/08/12 03:03:10;;;;;;;1.83;1.33;;;24.00;64.50;;;;;;5039001;28;45245;-66
2022/08/12 03:05:44;;;;;;;2.28;1.48;;;24.00;64.30;;;;;;5086917;27;47906;-66
2022/08/12 03:08:13;;;;;;;1.45;1.30;;;24.00;64.30;;;;;;5065747;27;45827;-66
2022/08/12 03:10:43;;;;;;;1.70;1.58;;;24.00;64.30;;;;;;5027661;28;45422;-66
2022/08/12 03:13:12;;;;;;;1.92;1.48;;;24.00;64.40;;;;;;5037002;27;45406;-67
2022/08/12 03:15:41;;;;;;;1.98;1.35;;;24.00;64.60;;;;;;5061422;27;47522;-67
2022/08/12 03:18:13;;;;;;;2.28;1.40;;;24.00;64.40;;;;;;5028286;28;45332;-66
2022/08/12 03:20:40;;;;;;;1.75;1.55;;;24.00;64.30;;;;;;5045578;27;45426;-67
2022/08/12 03:23:10;;;;;;;1.75;1.45;;;23.90;63.90;;;;;;5065444;27;45370;-66
2022/08/12 03:25:39;;;;;;;2.05;1.73;;;23.90;64.00;;;;;;5031993;28;46273;-67
2022/08/12 03:28:09;;;;;;;1.60;1.45;;;24.00;64.20;;;;;;5018635;28;45249;-66
2022/08/12 03:30:38;;;;;;;1.55;1.40;;;24.00;65.20;;;;;;5031917;27;45262;-67
2022/08/12 03:33:08;;;;;;;2.05;1.70;;;23.90;64.10;;;;;;5043357;27;45556;-68
2022/08/12 03:35:36;;;;;;;1.70;1.58;;;23.90;64.30;;;;;;5043934;28;45313;-67
2022/08/12 03:38:07;;;;;;;1.65;1.50;;;23.90;64.00;;;;;;5044783;28;45405;-67
2022/08/12 04:00:19;;;;;;;4.30;1.80;;;23.90;64.30;;;;;;5039725;27;45273;-67
2022/08/12 04:02:54;;;;;;;1.70;1.45;;;23.90;64.30;;;;;;5059856;27;45329;-66
2022/08/12 04:05:22;;;;;;;3.67;1.50;;;23.90;64.80;;;;;;5054755;27;45323;-66
2022/08/12 04:07:51;;;;;;;1.55;1.42;;;23.90;64.50;;;;;;5059705;27;45413;-68
2022/08/12 04:10:18;;;;;;;2.25;1.80;;;23.90;64.60;;;;;;5056223;27;45303;-67
2022/08/12 04:15:39;;;;;;;1.63;1.52;;;23.90;65.00;;;;;;5033877;28;45435;-67
2022/08/12 04:18:06;;;;;;;2.03;1.73;;;23.90;66.10;;;;;;5045780;27;46419;-66
2022/08/12 04:20:35;;;;;;;2.53;1.80;;;23.90;65.40;;;;;;5075599;27;46390;-67
2022/08/12 04:23:03;;;;;;;2.00;1.75;;;23.90;64.90;;;;;;5024477;28;45444;-67
2022/08/12 04:25:31;;;;;;;1.63;1.40;;;23.90;65.00;;;;;;5069011;27;45331;-67
2022/08/12 04:27:58;;;;;;;2.45;1.90;;;23.90;65.40;;;;;;5035445;28;48277;-67
2022/08/12 04:30:24;;;;;;;2.15;1.73;;;23.90;65.00;;;;;;5057971;28;45293;-66
2022/08/12 04:32:51;;;;;;;2.17;1.40;;;23.90;65.20;;;;;;5065945;27;45457;-67
2022/08/12 04:35:18;;;;;;;2.42;1.67;;;23.90;65.60;;;;;;5061362;27;45408;-68
2022/08/12 04:37:53;;;;;;;1.70;1.60;;;23.90;65.40;;;;;;5049836;28;46585;-66
2022/08/12 04:40:22;;;;;;;2.22;1.60;;;23.90;65.00;;;;;;5053941;28;45470;-67
2022/08/12 04:42:50;;;;;;;1.60;1.50;;;23.90;65.40;;;;;;5039672;28;45544;-67
2022/08/12 04:45:17;;;;;;;1.73;1.52;;;23.90;65.60;;;;;;5058805;27;45483;-67
2022/08/12 04:47:44;;;;;;;2.13;1.70;;;23.90;65.90;;;;;;5089706;27;45308;-68
2022/08/12 04:50:14;;;;;;;2.38;2.10;;;23.90;65.70;;;;;;5083532;27;45487;-67
2022/08/12 04:52:41;;;;;;;2.65;1.88;;;23.90;66.80;;;;;;5037717;27;45620;-67
2022/08/12 04:55:11;;;;;;;2.15;1.70;;;23.90;65.90;;;;;;5031918;27;46652;-68
2022/08/12 04:57:38;;;;;;;1.92;1.50;;;23.80;67.30;;;;;;5054456;27;46942;-67
2022/08/12 05:00:08;;;;;;;2.03;1.83;;;23.80;65.00;;;;;;5046232;27;45273;-68
2022/08/12 05:02:35;;;;;;;2.00;1.80;;;23.90;67.20;;;;;;5053739;27;45419;-67
2022/08/12 05:05:04;;;;;;;2.97;1.75;;;23.80;65.80;;;;;;5065301;27;45501;-67
2022/08/12 05:07:32;;;;;;;1.70;1.60;;;23.80;64.50;;;;;;5040277;27;46589;-67
2022/08/12 05:09:59;;;;;;;3.05;1.90;;;23.80;64.50;;;;;;5033053;27;45399;-67
2022/08/12 05:12:35;;;;;;;2.08;1.75;;;23.90;64.70;;;;;;5071014;27;45624;-67
2022/08/12 05:15:01;;;;;;;2.13;1.70;;;23.90;64.70;;;;;;5039216;27;45361;-67
2022/08/12 05:17:28;;;;;;;3.70;1.77;;;23.90;64.90;;;;;;5050520;28;47533;-66
2022/08/12 05:19:55;;;;;;;2.03;1.70;;;23.90;64.90;;;;;;5053802;28;45553;-67
2022/08/12 05:22:22;;;;;;;2.90;2.28;;;23.90;65.00;;;;;;5045190;27;45523;-66
2022/08/12 05:24:49;;;;;;;3.03;2.20;;;23.90;65.20;;;;;;5031164;28;45198;-66
2022/08/12 05:27:16;;;;;;;2.88;2.45;;;23.90;65.70;;;;;;5040586;28;45319;-68
2022/08/12 05:29:48;;;;;;;2.08;1.85;;;23.90;67.00;;;;;;5037075;27;45280;-67
2022/08/12 05:32:19;;;;;;;3.08;2.15;;;23.90;66.20;;;;;;5041049;28;45436;-67
2022/08/12 05:34:46;;;;;;;3.97;2.25;;;23.90;66.70;;;;;;5045911;28;45414;-68
2022/08/12 05:37:13;;;;;;;3.47;2.60;;;24.00;66.90;;;;;;5056113;27;46424;-67
2022/08/12 05:39:40;;;;;;;3.10;2.50;;;24.00;67.00;;;;;;5038026;28;45275;-67
2022/08/12 05:42:07;;;;;;;2.85;2.47;;;23.90;67.30;;;;;;5034486;28;45412;-67
2022/08/12 05:44:34;;;;;;;2.90;2.05;;;24.00;66.90;;;;;;5043980;28;45302;-67
2022/08/12 05:47:03;;;;;;;2.65;2.10;;;24.00;66.80;;;;;;5052842;27;46737;-67
2022/08/12 05:49:32;;;;;;;2.53;2.20;;;24.00;66.60;;;;;;5046439;28;45320;-66
2022/08/12 05:51:58;;;;;;;2.20;2.00;;;24.00;66.60;;;;;;5051578;27;45273;-67
2022/08/12 05:54:26;;;;;;;2.00;1.80;;;24.00;66.50;;;;;;5044633;28;45459;-67
2022/08/12 05:56:53;;;;;;;2.65;2.10;;;24.00;66.40;;;;;;5044426;28;47145;-67
2022/08/12 05:59:20;;;;;;;2.55;2.35;;;24.00;66.40;;;;;;5041628;28;45465;-67
2022/08/12 06:01:47;;;;;;;3.20;2.20;;;24.00;66.40;;;;;;5036898;27;45409;-67
2022/08/12 06:04:15;;;;;;;1.95;1.70;;;24.00;66.40;;;;;;5037522;28;45669;-66
2022/08/12 06:06:42;;;;;;;3.60;2.20;;;24.00;66.40;;;;;;5038566;27;47769;-67
2022/08/12 06:09:10;;;;;;;6.13;3.42;;;24.00;66.40;;;;;;5050086;28;45622;-75
2022/08/12 06:11:40;;;;;;;8.60;3.97;;;23.10;63.70;;;;;;5063269;28;45417;-76
2022/08/12 06:17:38;;;;;;;6.30;3.67;;;20.10;71.60;;;;;;5046151;28;45318;-76
2022/08/12 06:20:15;;;;;;;4.90;3.55;;;19.70;72.60;;;;;;5075243;27;45215;-75
2022/08/12 06:22:44;;;;;;;5.00;3.50;;;19.30;74.30;;;;;;5103244;27;45135;-75
2022/08/12 06:25:17;;;;;;;8.05;3.40;;;19.50;72.10;;;;;;5042889;28;45588;-75
2022/08/12 06:27:47;;;;;;;8.57;3.40;;;19.90;71.90;;;;;;5028330;28;45708;-76
2022/08/12 06:30:14;;;;;;;7.05;3.40;;;20.10;70.80;;;;;;5022440;28;45307;-76
2022/08/12 06:32:42;;;;;;;6.40;3.60;;;20.50;69.10;;;;;;5023369;27;45435;-76
2022/08/12 06:35:09;;;;;;;5.15;3.25;;;20.80;67.30;;;;;;5022629;28;45587;-76
2022/08/12 06:37:40;;;;;;;5.85;3.05;;;21.00;67.60;;;;;;5022634;28;46249;-77
2022/08/12 06:40:09;;;;;;;4.60;3.10;;;21.10;67.30;;;;;;5021879;28;45277;-76
2022/08/12 06:42:47;;;;;;;7.88;3.63;;;21.10;66.70;;;;;;5022555;27;45261;-75
2022/08/12 06:45:14;;;;;;;6.53;3.30;;;21.20;66.40;;;;;;5024634;27;45393;-76
2022/08/12 06:47:41;;;;;;;13.07;3.30;;;21.20;67.00;;;;;;5041614;28;48058;-76
2022/08/12 06:50:10;;;;;;;6.38;3.20;;;21.30;66.30;;;;;;5041869;27;45298;-76
2022/08/12 06:52:36;;;;;;;6.28;3.03;;;21.50;65.10;;;;;;5041874;27;45346;-75
2022/08/12 06:55:06;;;;;;;9.63;3.83;;;21.60;65.30;;;;;;5047551;28;45440;-75
2022/08/12 06:57:33;;;;;;;17.55;3.72;;;21.60;63.80;;;;;;5041370;28;46799;-75
2022/08/12 06:59:59;;;;;;;7.47;3.80;;;21.70;64.00;;;;;;5041026;28;45551;-75
2022/08/12 07:02:26;;;;;;;6.68;3.53;;;21.90;63.60;;;;;;5035837;28;45602;-75
2022/08/12 07:04:53;;;;;;;10.00;3.35;;;22.00;63.30;;;;;;5038393;28;45428;-75
2022/08/12 07:07:20;;;;;;;11.10;3.58;;;22.00;63.60;;;;;;5045149;27;47327;-75
2022/08/12 07:09:47;;;;;;;10.20;3.30;;;22.10;62.80;;;;;;5044655;28;45918;-75
2022/08/12 07:12:18;;;;;;;11.35;3.00;;;22.20;62.70;;;;;;5042744;27;45370;-76
2022/08/12 07:14:45;;;;;;;8.05;3.53;;;22.20;62.00;;;;;;5044811;28;45461;-76
2022/08/12 07:17:14;;;;;;;12.23;3.10;;;22.30;60.50;;;;;;5044414;28;47791;-75
2022/08/12 07:19:42;;;;;;;4.90;2.35;;;22.30;61.50;;;;;;5033821;28;45192;-75
2022/08/12 07:22:12;;;;;;;4.20;2.55;;;22.40;60.60;;;;;;5035139;28;45281;-76
2022/08/12 07:24:39;;;;;;;9.38;2.78;;;22.60;60.90;;;;;;5040696;28;45381;-75
2022/08/12 07:27:06;;;;;;;5.15;2.63;;;22.70;60.40;;;;;;5043817;28;46387;-76
2022/08/12 07:29:34;;;;;;;7.45;2.65;;;22.80;60.30;;;;;;5044603;28;45294;-76
2022/08/12 07:32:04;;;;;;;5.60;2.28;;;23.00;59.40;;;;;;5044682;27;45311;-76
2022/08/12 07:34:31;;;;;;;6.97;2.50;;;23.00;58.40;;;;;;5024868;28;45173;-76
2022/08/12 07:36:59;;;;;;;9.73;2.42;;;23.00;57.60;;;;;;5028498;28;46223;-76
2022/08/12 07:39:28;;;;;;;6.03;2.03;;;23.10;61.00;;;;;;5024378;27;45300;-76
2022/08/12 07:41:55;;;;;;;2.58;1.98;;;23.10;59.00;;;;;;5024709;28;45355;-76
2022/08/12 07:44:22;;;;;;;8.23;2.65;;;23.30;56.30;;;;;;5031936;28;45295;-76
2022/08/12 07:46:50;;;;;;;6.40;2.10;;;23.50;55.60;;;;;;5039814;28;45326;-76
2022/08/12 07:49:17;;;;;;;5.63;2.10;;;23.50;55.60;;;;;;5025367;28;45302;-76
2022/08/12 07:51:44;;;;;;;5.15;1.85;;;23.50;57.60;;;;;;5032962;28;45260;-75
2022/08/12 07:54:12;;;;;;;3.05;2.10;;;23.50;62.00;;;;;;5026292;28;45460;-75
2022/08/12 07:56:41;;;;;;;2.13;1.75;;;23.50;62.40;;;;;;5036627;28;47715;-75
2022/08/12 07:59:11;;;;;;;5.97;1.80;;;23.50;59.30;;;;;;5045889;28;45195;-75
2022/08/12 08:01:39;;;;;;;3.50;2.03;;;23.50;61.90;;;;;;5045524;27;45261;-75
2022/08/12 08:06:59;;;;;;;3.15;1.77;;;23.50;61.70;;;;;;5026408;28;46014;-76
2022/08/12 08:09:26;;;;;;;4.60;1.95;;;23.60;63.50;;;;;;5044683;27;45221;-76
2022/08/12 08:14:39;;;;;;;5.63;2.30;;;23.70;57.80;;;;;;5058016;28;45321;-76
2022/08/12 08:17:07;;;;;;;6.20;2.22;;;23.70;60.60;;;;;;5063918;28;47474;-76
2022/08/12 08:19:35;;;;;;;1.73;1.50;;;23.70;60.00;;;;;;5046044;28;45401;-76
2022/08/12 08:22:02;;;;;;;3.08;2.17;;;23.70;63.30;;;;;;5043700;28;45295;-76
2022/08/12 08:24:30;;;;;;;7.40;1.80;;;23.80;61.60;;;;;;5043521;28;45248;-76
2022/08/12 08:26:59;;;;;;;10.52;2.00;;;23.80;58.00;;;;;;5041967;28;48649;-76
2022/08/12 08:29:28;;;;;;;3.47;1.60;;;23.90;58.00;;;;;;5043956;28;45367;-76
2022/08/12 08:31:58;;;;;;;4.70;1.88;;;23.90;61.00;;;;;;5043827;27;45291;-76
2022/08/12 08:34:28;;;;;;;3.67;1.50;;;23.90;63.60;;;;;;5041976;27;45493;-76
2022/08/12 08:36:56;;;;;;;1.80;1.60;;;23.80;57.90;;;;;;5038989;27;47951;-76
2022/08/12 08:39:26;;;;;;;3.08;1.60;;;23.90;58.10;;;;;;5026862;28;45183;-76
2022/08/12 08:44:38;;;;;;;2.88;1.73;;;23.90;62.10;;;;;;5043738;28;45286;-76
2022/08/12 08:47:05;;;;;;;5.00;1.77;;;23.90;62.10;;;;;;5043344;28;47472;-76
2022/08/12 08:49:44;;;;;;;1.73;1.40;;;23.90;61.40;;;;;;5028057;28;45224;-76
2022/08/12 08:52:12;;;;;;;2.65;1.63;;;23.90;62.20;;;;;;5043453;27;45290;-76
2022/08/12 08:54:39;;;;;;;2.55;1.60;;;23.90;60.10;;;;;;5046550;28;45435;-76
2022/08/12 08:57:07;;;;;;;2.42;1.73;;;23.90;60.60;;;;;;5045620;28;45467;-76
2022/08/12 08:59:34;;;;;;;3.85;2.03;;;23.90;55.90;;;;;;5040673;28;46000;-76
2022/08/12 09:02:02;;;;;;;2.15;1.48;;;23.90;62.30;;;;;;5043536;28;45247;-76
2022/08/12 09:04:28;;;;;;;5.25;1.60;;;23.80;63.40;;;;;;5055157;28;45263;-75
2022/08/12 09:06:58;;;;;;;4.05;1.65;;;23.90;61.80;;;;;;5034690;28;47452;-76
2022/08/12 09:09:27;;;;;;;1.92;1.50;;;23.80;63.50;;;;;;5052630;28;45260;-76
2022/08/12 09:14:42;;;;;;;1.98;1.70;;;23.90;67.60;;;;;;5022524;28;45267;-76
2022/08/12 09:17:21;;;;;;;1.38;1.27;;;23.80;64.00;;;;;;5043228;27;48588;-76
2022/08/12 09:19:48;;;;;;;3.25;1.77;;;23.80;64.00;;;;;;5043763;27;45548;-76
2022/08/12 09:22:14;;;;;;;2.63;1.73;;;23.80;65.00;;;;;;5043492;28;45188;-76
2022/08/12 09:24:43;;;;;;;2.80;1.60;;;23.80;62.70;;;;;;5043372;28;45680;-76
2022/08/12 09:27:14;;;;;;;1.88;1.48;;;23.90;63.10;;;;;;5042982;28;48598;-76
2022/08/12 09:29:41;;;;;;;2.30;1.45;;;23.80;65.10;;;;;;5042314;27;45204;-76
2022/08/12 09:32:08;;;;;;;1.88;1.50;;;23.90;64.60;;;;;;5043826;28;45210;-77
2022/08/12 09:34:35;;;;;;;1.98;1.50;;;23.80;66.30;;;;;;5043907;28;45432;-75
2022/08/12 09:37:02;;;;;;;1.65;1.50;;;23.80;67.60;;;;;;5043116;28;47581;-76
2022/08/12 09:39:29;;;;;;;4.43;1.67;;;23.80;66.00;;;;;;5043464;28;45243;-76
2022/08/12 09:47:28;;;;;;;2.33;1.50;;;23.80;65.70;;;;;;5043702;28;45405;-76
2022/08/12 09:49:54;;;;;;;1.77;1.48;;;23.80;66.40;;;;;;5043501;27;45418;-76
2022/08/12 09:52:22;;;;;;;1.67;1.27;;;23.80;65.60;;;;;;5043760;28;45345;-76
2022/08/12 09:54:48;;;;;;;3.08;1.63;;;23.80;66.20;;;;;;5043046;28;45509;-76
2022/08/12 09:57:19;;;;;;;2.80;1.60;;;23.80;65.70;;;;;;5024289;28;46626;-76
2022/08/12 09:59:46;;;;;;;3.33;1.98;;;23.90;66.20;;;;;;5035377;27;45357;-76
2022/08/12 10:02:13;;;;;;;3.70;1.65;;;23.80;65.40;;;;;;5101427;27;45319;-76
2022/08/12 10:04:47;;;;;;;2.45;1.40;;;23.90;65.40;;;;;;5043891;28;45411;-77
2022/08/12 10:07:14;;;;;;;2.33;1.42;;;23.90;65.30;;;;;;5040537;28;47581;-74
2022/08/12 10:09:41;;;;;;;3.42;1.65;;;23.90;65.30;;;;;;5023085;28;45211;-76
2022/08/12 10:14:50;;;;;;;2.00;1.55;;;23.90;65.20;;;;;;5000021;28;45308;-76
2022/08/12 10:17:43;;;;;;;4.18;1.67;;;24.00;65.20;;;;;;5023339;27;47257;-76
2022/08/12 10:20:11;;;;;;;3.65;1.77;;;23.90;65.50;;;;;;5023516;28;45318;-76
2022/08/12 10:22:38;;;;;;;1.55;1.42;;;24.00;63.60;;;;;;5023419;27;45130;-76
2022/08/12 10:30:35;;;;;;;2.75;1.50;;;24.00;62.90;;;;;;5037489;28;45276;-75
2022/08/12 10:33:02;;;;;;;3.83;1.55;;;24.10;64.30;;;;;;5061956;28;45263;-76
2022/08/12 10:35:31;;;;;;;4.47;1.98;;;24.10;62.60;;;;;;5042474;28;45426;-75
2022/08/12 10:38:00;;;;;;;2.85;1.40;;;24.10;65.40;;;;;;5041577;28;46638;-75
2022/08/12 10:40:29;;;;;;;2.45;1.60;;;24.00;65.50;;;;;;5039315;27;45364;-75
2022/08/12 10:45:42;;;;;;;2.13;1.70;;;23.90;66.20;;;;;;5038021;28;45248;-75
2022/08/12 10:48:08;;;;;;;2.42;1.73;;;23.90;65.90;;;;;;5042377;28;48562;-75
2022/08/12 10:50:36;;;;;;;2.85;1.60;;;23.90;65.70;;;;;;5042743;28;45445;-75
2022/08/12 10:53:19;;;;;;;2.75;1.60;;;23.90;65.70;;;;;;5042106;28;45392;-75
2022/08/12 10:55:45;;;;;;;1.63;1.40;;;23.90;66.10;;;;;;5056471;28;45332;-75
2022/08/12 10:58:13;;;;;;;2.17;1.27;;;23.80;66.00;;;;;;5062319;28;47529;-76
2022/08/12 11:00:42;;;;;;;1.40;1.20;;;23.80;66.40;;;;;;5059278;28;46098;-76
2022/08/12 11:03:08;;;;;;;5.28;1.40;;;23.80;66.40;;;;;;5062506;28;45186;-76
2022/08/12 11:05:35;;;;;;;2.55;1.60;;;23.80;66.10;;;;;;5052756;28;45569;-76
2022/08/12 11:08:02;;;;;;;4.20;1.30;;;23.90;65.90;;;;;;5041695;27;46559;-75
2022/08/12 11:10:32;;;;;;;2.08;1.55;;;23.90;66.00;;;;;;5023192;28;45282;-75
2022/08/12 11:12:59;;;;;;;1.85;1.48;;;23.90;65.90;;;;;;5027619;28;45274;-75
2022/08/12 11:15:26;;;;;;;2.50;1.50;;;23.80;73.70;;;;;;5041384;27;45572;-76
2022/08/12 11:17:54;;;;;;;2.20;1.42;;;23.70;69.70;;;;;;5034054;28;46714;-76
2022/08/12 11:20:21;;;;;;;1.85;1.30;;;23.70;71.40;;;;;;5053989;28;45827;-74
2022/08/12 11:23:01;;;;;;;2.05;1.40;;;23.70;69.60;;;;;;5051746;28;45509;-75
2022/08/12 11:25:28;;;;;;;2.08;1.48;;;23.70;69.70;;;;;;5040941;28;45404;-75
2022/08/12 11:27:55;;;;;;;2.25;1.52;;;23.70;70.70;;;;;;5032814;28;46629;-75
2022/08/12 11:30:22;;;;;;;2.03;1.20;;;23.80;68.80;;;;;;5036734;28;45455;-75
2022/08/12 11:32:48;;;;;;;1.85;1.40;;;23.80;67.50;;;;;;5041140;27;45376;-75
2022/08/12 11:35:17;;;;;;;1.83;1.23;;;23.80;68.50;;;;;;5024468;27;45291;-75
2022/08/12 11:37:43;;;;;;;2.40;1.40;;;23.80;67.40;;;;;;5040960;27;47539;-75
2022/08/12 11:40:24;;;;;;;1.83;1.20;;;23.80;66.90;;;;;;5037428;28;45689;-75
2022/08/12 11:42:51;;;;;;;1.15;1.08;;;23.80;67.20;;;;;;5025099;28;45234;-75
2022/08/12 11:45:18;;;;;;;1.75;1.33;;;23.80;67.20;;;;;;5021020;28;45542;-75
2022/08/12 11:47:58;;;;;;;4.38;1.50;;;23.80;67.30;;;;;;5038606;28;46640;-75
2022/08/12 11:50:27;;;;;;;1.70;1.40;;;23.80;68.40;;;;;;5038338;28;45276;-75
2022/08/12 11:52:53;;;;;;;1.50;1.33;;;23.80;68.10;;;;;;5040101;28;45329;-75
2022/08/12 11:55:21;;;;;;;1.50;1.40;;;23.80;68.40;;;;;;5043899;27;45411;-75
2022/08/12 11:57:49;;;;;;;2.67;1.42;;;23.80;76.60;;;;;;5043791;28;47335;-75
2022/08/12 12:00:17;;;;;;;2.13;1.30;;;23.70;73.30;;;;;;5043875;28;45399;-75
2022/08/12 12:02:44;;;;;;;1.88;1.33;;;23.60;69.40;;;;;;5044139;28;45198;-75
2022/08/12 12:05:11;;;;;;;2.15;1.30;;;23.70;70.90;;;;;;5044143;28;45277;-76
2022/08/12 12:07:40;;;;;;;1.70;1.13;;;23.70;69.60;;;;;;5043070;28;45276;-75
2022/08/12 12:10:07;;;;;;;1.95;1.20;;;23.70;68.80;;;;;;5046507;28;45288;-75
2022/08/12 12:12:34;;;;;;;2.38;1.23;;;23.70;71.10;;;;;;5029005;28;45305;-75
2022/08/12 12:15:02;;;;;;;1.55;1.20;;;23.70;71.60;;;;;;5037391;28;45135;-75
2022/08/12 12:17:29;;;;;;;1.00;1.00;;;23.70;74.00;;;;;;5051369;28;46416;-75
2022/08/12 12:19:56;;;;;;;1.98;1.30;;;23.70;69.60;;;;;;5036226;28;45283;-76
2022/08/12 12:22:23;;;;;;;2.65;1.42;;;23.70;69.90;;;;;;5049001;28;45309;-75
2022/08/12 12:24:51;;;;;;;4.47;1.42;;;23.70;69.40;;;;;;5035372;27;45553;-75
2022/08/12 12:27:19;;;;;;;1.83;1.50;;;23.70;68.80;;;;;;5043525;28;47146;-75
2022/08/12 12:29:46;;;;;;;1.83;1.60;;;23.70;72.90;;;;;;5057405;28;45330;-75
2022/08/12 12:32:13;;;;;;;3.08;1.83;;;23.60;78.50;;;;;;5043769;28;45329;-75
2022/08/12 12:34:39;;;;;;;1.30;1.20;;;23.60;70.00;;;;;;5038492;28;45525;-75
2022/08/12 12:37:10;;;;;;;2.22;1.30;;;23.60;70.90;;;;;;5035740;28;46927;-75
2022/08/12 12:39:37;;;;;;;3.40;1.42;;;23.70;70.30;;;;;;5028843;28;45265;-75
2022/08/12 12:42:05;;;;;;;2.58;1.25;;;23.70;68.70;;;;;;5043556;28;45240;-75
2022/08/12 12:44:32;;;;;;;1.92;1.25;;;23.70;69.90;;;;;;5043744;28;45565;-75
2022/08/12 12:46:59;;;;;;;1.52;1.30;;;23.70;69.60;;;;;;5043120;28;46623;-75
2022/08/12 12:49:26;;;;;;;2.53;1.35;;;23.70;72.60;;;;;;5039836;28;45272;-75
2022/08/12 12:51:53;;;;;;;1.42;1.17;;;23.60;71.90;;;;;;5027793;28;45318;-75
2022/08/12 12:54:19;;;;;;;1.30;1.20;;;23.70;69.60;;;;;;5027555;28;45254;-75
2022/08/12 12:56:48;;;;;;;2.42;1.25;;;23.80;67.70;;;;;;5040077;28;46855;-75
2022/08/12 12:59:17;;;;;;;1.10;1.00;;;23.90;67.60;;;;;;5043584;27;45352;-75
2022/08/12 13:01:44;;;;;;;1.20;1.10;;;23.80;67.60;;;;;;5043090;28;45273;-76
2022/08/12 13:04:11;;;;;;;3.35;1.20;;;23.80;70.70;;;;;;5042812;28;45241;-75
2022/08/12 13:06:40;;;;;;;1.20;1.02;;;23.70;69.10;;;;;;5037420;28;46485;-74
2022/08/12 13:09:11;;;;;;;1.83;1.20;;;23.80;68.00;;;;;;5023625;28;45226;-75
2022/08/12 13:11:38;;;;;;;3.00;1.40;;;23.80;68.60;;;;;;5035009;28;45462;-75
2022/08/12 13:14:07;;;;;;;4.32;1.02;;;23.80;67.60;;;;;;5043515;27;45448;-75
2022/08/12 13:16:35;;;;;;;2.10;1.15;;;23.70;70.00;;;;;;5043093;27;46381;-75
2022/08/12 13:19:02;;;;;;;1.60;1.20;;;23.70;68.50;;;;;;5037089;28;45310;-75
2022/08/12 13:21:31;;;;;;;2.45;1.27;;;23.60;68.50;;;;;;5043231;27;45305;-75
2022/08/12 13:24:02;;;;;;;1.45;1.08;;;23.60;69.80;;;;;;5043050;27;45409;-75
2022/08/12 13:26:33;;;;;;;1.33;1.23;;;23.70;68.70;;;;;;5035081;27;46467;-75
2022/08/12 13:29:00;;;;;;;1.55;1.35;;;23.70;71.90;;;;;;5043049;27;45262;-75
2022/08/12 13:31:27;;;;;;;2.13;1.33;;;23.70;73.10;;;;;;5043042;28;45509;-75
2022/08/12 13:33:55;;;;;;;2.15;1.00;;;23.70;69.10;;;;;;5043139;27;45203;-75
2022/08/12 13:36:22;;;;;;;1.70;1.10;;;23.70;70.40;;;;;;5032178;28;48403;-75
2022/08/12 13:38:50;;;;;;;2.63;1.05;;;23.70;67.80;;;;;;5038211;28;45643;-75
2022/08/12 13:44:10;;;;;;;0.70;0.70;;;23.80;66.80;;;;;;5055900;28;45572;-75
2022/08/12 13:46:40;;;;;;;1.65;1.13;;;23.80;67.40;;;;;;5044074;28;46854;-75
2022/08/12 13:49:12;;;;;;;1.38;0.93;;;23.80;67.30;;;;;;5042388;27;45768;-75
2022/08/12 13:51:41;;;;;;;1.15;1.05;;;23.80;68.10;;;;;;5044377;28;45453;-75
2022/08/12 13:54:08;;;;;;;1.55;1.10;;;23.80;67.20;;;;;;5042556;28;45514;-75
2022/08/12 13:56:35;;;;;;;1.50;0.93;;;23.80;66.90;;;;;;5041713;27;48243;-75
2022/08/12 13:59:04;;;;;;;1.35;1.02;;;23.80;68.70;;;;;;5042168;28;45597;-76
2022/08/12 14:01:31;;;;;;;4.13;1.08;;;23.80;67.20;;;;;;5042369;28;45345;-74
2022/08/12 14:03:57;;;;;;;1.40;0.88;;;23.80;67.00;;;;;;5049917;28;45353;-74
2022/08/12 14:06:27;;;;;;;1.38;1.10;;;23.80;72.50;;;;;;5045888;28;48238;-74
2022/08/12 14:08:54;;;;;;;1.70;1.10;;;23.70;70.40;;;;;;5042011;28;45453;-74
2022/08/12 14:11:21;;;;;;;1.00;0.90;;;23.80;69.00;;;;;;5042170;28;45445;-75
2022/08/12 14:13:48;;;;;;;1.38;1.17;;;23.80;68.20;;;;;;5042033;28;45444;-74
2022/08/12 14:16:16;;;;;;;2.42;0.90;;;23.80;70.00;;;;;;5042864;27;46808;-74
2022/08/12 14:18:44;;;;;;;1.40;1.02;;;23.80;68.20;;;;;;5038366;28;45388;-74
2022/08/12 14:21:14;;;;;;;0.80;0.80;;;23.80;67.30;;;;;;5036300;28;45191;-74
2022/08/12 14:23:43;;;;;;;1.33;0.90;;;23.90;66.90;;;;;;5028555;28;45235;-75
2022/08/12 14:26:11;;;;;;;1.50;1.20;;;23.90;67.80;;;;;;5041653;28;47021;-75
2022/08/12 14:28:40;;;;;;;1.92;0.77;;;23.90;67.70;;;;;;5039877;27;45247;-75
2022/08/12 14:31:09;;;;;;;1.38;0.90;;;23.90;67.40;;;;;;5045976;28;45239;-74
2022/08/12 14:33:39;;;;;;;1.83;0.80;;;23.90;67.80;;;;;;5040352;28;45239;-75
2022/08/12 14:36:10;;;;;;;0.90;0.80;;;23.90;71.50;;;;;;5041684;27;48143;-74
2022/08/12 14:38:39;;;;;;;1.45;1.02;;;23.90;69.50;;;;;;5037261;27;45364;-74
2022/08/12 14:41:09;;;;;;;1.20;0.90;;;23.90;68.20;;;;;;5032770;28;45362;-75
2022/08/12 14:43:37;;;;;;;1.23;0.95;;;23.90;67.90;;;;;;5039476;28;45425;-74
2022/08/12 14:46:04;;;;;;;0.88;0.85;;;23.90;70.30;;;;;;5033001;27;48199;-74
2022/08/12 14:48:31;;;;;;;1.15;1.00;;;23.90;69.60;;;;;;5021687;28;45349;-74
2022/08/12 14:50:58;;;;;;;1.65;1.00;;;23.80;69.30;;;;;;5053957;28;45341;-74
2022/08/12 14:53:28;;;;;;;0.82;0.80;;;23.90;71.30;;;;;;5042262;28;45285;-74